createdAt,value
2023-05-22T13:25:31.344Z,99051.91
2023-05-22T13:27:59.512Z,99043.47
2023-05-22T13:30:26.404Z,99044.66
2023-05-22T13:32:53.187Z,99048.50
2023-05-22T13:35:19.803Z,99038.13
2023-05-22T13:37:46.802Z,99042.84
2023-05-22T13:40:14.585Z,99046.38
2023-05-22T13:42:41.352Z,99044.88
2023-05-22T13:45:08.646Z,99037.19
2023-05-22T13:47:35.504Z,99037.38
2023-05-22T13:50:02.196Z,99034.31
2023-05-22T13:52:28.908Z,99025.78
2023-05-22T13:54:56.172Z,99022.31
2023-05-22T13:57:22.758Z,99027.69
2023-05-22T13:59:49.424Z,99026.59
2023-05-22T14:02:16.022Z,99027.09
2023-05-22T14:04:42.673Z,99026.69
2023-05-22T14:07:09.248Z,99019.41
2023-05-22T14:09:35.895Z,99022.41
2023-05-22T14:12:02.720Z,99044.28
2023-05-22T14:14:29.266Z,99029.75
2023-05-22T14:16:55.920Z,99035.97
2023-05-22T14:19:22.618Z,99047.31
2023-05-22T14:21:50.875Z,99036.84
2023-05-22T14:24:18.020Z,99041.66
2023-05-22T14:26:44.892Z,99041.31
2023-05-22T14:29:11.954Z,99025.25
2023-05-22T14:31:51.783Z,99048.28
2023-05-22T14:34:18.889Z,99049.53
2023-05-22T14:36:46.100Z,99057.50
2023-05-22T14:39:12.674Z,99054.41
2023-05-22T14:41:39.349Z,99056.34
2023-05-22T14:44:06.116Z,99053.03
2023-05-22T14:46:32.764Z,99043.88
2023-05-22T14:48:59.338Z,99052.72
2023-05-22T14:51:25.998Z,99043.44
2023-05-22T14:53:52.836Z,99042.31
2023-05-22T14:56:19.488Z,99045.03
2023-05-22T14:58:46.073Z,99050.31
2023-05-22T15:01:12.656Z,99053.41
2023-05-22T15:03:39.292Z,99043.00
2023-05-22T15:06:06.111Z,99042.31
2023-05-22T15:08:32.718Z,99042.88
2023-05-22T15:10:59.392Z,99045.28
2023-05-22T15:13:26.019Z,99044.38
2023-05-22T15:15:52.753Z,99043.69
2023-05-22T15:18:20.127Z,99040.88
2023-05-22T15:20:46.777Z,99032.63
2023-05-22T15:23:13.797Z,99037.81
2023-05-22T15:25:41.109Z,99049.47
2023-05-22T15:28:07.990Z,99051.81
2023-05-22T15:30:38.885Z,99048.38
2023-05-22T15:33:05.763Z,99053.06
2023-05-22T15:35:32.402Z,99042.69
2023-05-22T15:37:59.271Z,99051.88
2023-05-22T15:40:26.084Z,99058.19
2023-05-22T15:42:53.458Z,99062.03
2023-05-22T15:45:20.587Z,99072.06
2023-05-22T15:47:47.930Z,99059.34
2023-05-22T15:50:14.656Z,99057.06
2023-05-22T15:52:41.225Z,99058.13
2023-05-22T15:55:08.172Z,99059.50
2023-05-22T15:57:34.816Z,99074.22
2023-05-22T16:00:01.451Z,99062.63
2023-05-22T16:02:28.153Z,99062.03
2023-05-22T16:04:54.778Z,99084.41
2023-05-22T16:07:21.427Z,99076.13
2023-05-22T16:09:50.157Z,99063.25
2023-05-22T16:12:16.984Z,99073.34
2023-05-22T16:14:43.568Z,99088.41
2023-05-22T16:17:10.161Z,99083.47
2023-05-22T16:19:36.837Z,99084.41
2023-05-22T16:22:03.658Z,99088.41
2023-05-22T16:24:30.286Z,99086.41
2023-05-22T16:26:59.225Z,99098.69
2023-05-22T16:29:25.852Z,99091.50
2023-05-22T16:31:52.463Z,99092.38
2023-05-22T16:34:19.195Z,99090.66
2023-05-22T16:36:45.936Z,99087.31
2023-05-22T16:39:12.741Z,99086.44
2023-05-22T16:41:39.338Z,99089.22
2023-05-22T16:44:05.944Z,99086.06
2023-05-22T16:46:32.582Z,99095.66
2023-05-22T16:48:59.232Z,99094.63
2023-05-22T16:51:25.814Z,99093.00
2023-05-22T16:53:52.381Z,99098.75
2023-05-22T16:56:20.753Z,99093.78
2023-05-22T16:58:47.808Z,99099.03
2023-05-22T17:01:14.569Z,99094.44
2023-05-22T17:03:41.260Z,99091.66
2023-05-22T17:06:09.022Z,99089.38
2023-05-22T17:08:35.701Z,99090.22
2023-05-22T17:11:02.333Z,99094.97
2023-05-22T17:13:28.905Z,99091.22
2023-05-22T17:15:55.700Z,99095.81
2023-05-22T17:18:22.330Z,99099.81
2023-05-22T17:20:49.853Z,99102.47
2023-05-22T17:23:17.295Z,99101.59
2023-05-22T17:25:46.593Z,99100.47
2023-05-22T17:28:14.532Z,99117.91
2023-05-22T17:30:42.757Z,99102.22
2023-05-22T17:33:10.245Z,99110.81
2023-05-22T17:35:36.866Z,99114.63
2023-05-22T17:38:03.563Z,99112.06
2023-05-22T17:40:44.047Z,99107.38
2023-05-22T17:43:12.520Z,99119.34
2023-05-22T17:45:39.642Z,99117.84
2023-05-22T17:48:07.659Z,99105.19
2023-05-22T17:50:34.358Z,99112.38
2023-05-22T17:53:00.924Z,99098.97
2023-05-22T17:55:27.512Z,99115.16
2023-05-22T17:57:54.269Z,99106.84
2023-05-22T18:00:20.934Z,99113.13
2023-05-22T18:02:47.762Z,99110.72
2023-05-22T18:05:14.520Z,99111.47
2023-05-22T18:07:41.245Z,99119.75
2023-05-22T18:10:08.303Z,99122.44
2023-05-22T18:12:37.308Z,99130.31
2023-05-22T18:15:05.128Z,99128.69
2023-05-22T18:17:32.560Z,99142.72
2023-05-22T18:20:01.019Z,99147.38
2023-05-22T18:22:27.567Z,99148.06
2023-05-22T18:24:54.149Z,99149.56
2023-05-22T18:27:20.808Z,99151.06
2023-05-22T18:29:47.320Z,99160.41
2023-05-22T18:32:13.901Z,99164.19
2023-05-22T18:34:41.109Z,99171.25
2023-05-22T18:37:07.758Z,99174.34
2023-05-22T18:39:34.321Z,99174.19
2023-05-22T18:42:01.152Z,99186.56
2023-05-22T18:44:27.813Z,99188.75
2023-05-22T18:46:54.493Z,99196.13
2023-05-22T18:49:21.288Z,99199.63
2023-05-22T18:51:47.927Z,99206.66
2023-05-22T18:54:14.522Z,99213.63
2023-05-22T18:56:41.131Z,99220.97
2023-05-22T18:59:07.793Z,99216.41
2023-05-22T19:01:34.427Z,99235.09
2023-05-22T19:04:01.079Z,99237.34
2023-05-22T19:06:29.002Z,99236.50
2023-05-22T19:08:55.565Z,99238.81
2023-05-22T19:11:22.095Z,99240.31
2023-05-22T19:13:48.648Z,99251.91
2023-05-22T19:16:15.368Z,99255.78
2023-05-22T19:18:42.177Z,99256.38
2023-05-22T19:21:08.867Z,99249.13
2023-05-22T19:23:36.653Z,99247.72
2023-05-22T19:26:03.483Z,99246.44
2023-05-22T19:28:32.296Z,99251.78
2023-05-22T19:31:00.084Z,99244.66
2023-05-22T19:33:27.651Z,99257.06
2023-05-22T19:35:54.250Z,99259.31
2023-05-22T19:38:20.884Z,99262.34
2023-05-22T19:40:47.456Z,99265.41
2023-05-22T19:43:14.460Z,99261.28
2023-05-22T19:45:41.070Z,99273.72
2023-05-22T19:48:07.838Z,99277.47
2023-05-22T19:50:35.543Z,99285.63
2023-05-22T19:53:02.482Z,99280.44
2023-05-22T19:55:29.248Z,99291.75
2023-05-22T19:57:56.052Z,99294.50
2023-05-22T20:00:22.854Z,99292.09
2023-05-22T20:02:50.066Z,99293.56
2023-05-22T20:05:17.047Z,99294.28
2023-05-22T20:07:43.648Z,99295.44
2023-05-22T20:10:11.284Z,99297.38
2023-05-22T20:12:38.168Z,99294.13
2023-05-22T20:15:06.947Z,99296.78
2023-05-22T20:17:34.519Z,99288.47
2023-05-22T20:20:01.148Z,99294.66
2023-05-22T20:22:27.963Z,99293.69
2023-05-22T20:24:54.578Z,99292.81
2023-05-22T20:27:21.243Z,99299.81
2023-05-22T20:29:49.942Z,99313.00
2023-05-22T20:32:17.017Z,99316.81
2023-05-22T20:34:45.161Z,99310.88
2023-05-22T20:37:13.653Z,99329.31
2023-05-22T20:39:43.231Z,99324.16
2023-05-22T20:42:11.645Z,99338.59
2023-05-22T20:44:38.401Z,99339.28
2023-05-22T20:47:05.940Z,99344.78
2023-05-22T20:49:34.765Z,99344.59
2023-05-22T20:52:02.784Z,99351.16
2023-05-22T20:54:34.085Z,99348.66
2023-05-22T20:57:01.527Z,99356.00
2023-05-22T20:59:31.080Z,99361.28
2023-05-22T21:01:57.970Z,99363.84
2023-05-22T21:04:24.757Z,99371.88
2023-05-22T21:06:51.472Z,99379.53
2023-05-22T21:09:18.208Z,99377.75
2023-05-22T21:11:44.863Z,99374.38
2023-05-22T21:14:11.546Z,99377.38
2023-05-22T21:16:39.572Z,99369.75
2023-05-22T21:19:07.263Z,99371.94
2023-05-22T21:21:36.224Z,99369.91
2023-05-22T21:24:02.903Z,99364.69
2023-05-22T21:26:29.562Z,99360.25
2023-05-22T21:28:56.359Z,99360.50
2023-05-22T21:31:23.030Z,99360.81
2023-05-22T21:33:49.659Z,99358.34
2023-05-22T21:36:16.275Z,99362.03
2023-05-22T21:38:42.870Z,99364.75
2023-05-22T21:41:09.384Z,99378.00
2023-05-22T21:43:35.960Z,99385.28
2023-05-22T21:46:02.582Z,99382.78
2023-05-22T21:48:29.228Z,99381.88
2023-05-22T21:50:56.097Z,99388.34
2023-05-22T21:53:23.044Z,99395.22
2023-05-22T21:55:49.875Z,99400.91
2023-05-22T21:58:16.435Z,99394.06
2023-05-22T22:00:42.992Z,99407.66
2023-05-22T22:03:09.736Z,99400.59
2023-05-22T22:05:36.802Z,99401.38
2023-05-22T22:08:03.366Z,99399.00
2023-05-22T22:10:29.893Z,99413.34
2023-05-22T22:12:56.458Z,99408.53
2023-05-22T22:15:23.152Z,99414.25
2023-05-22T22:17:50.274Z,99401.72
2023-05-22T22:20:18.659Z,99413.47
2023-05-22T22:22:47.134Z,99427.47
2023-05-22T22:25:13.732Z,99418.81
2023-05-22T22:27:40.712Z,99420.41
2023-05-22T22:30:08.200Z,99415.38
2023-05-22T22:32:34.769Z,99416.06
2023-05-22T22:35:01.628Z,99425.88
2023-05-22T22:37:28.453Z,99429.75
2023-05-22T22:39:55.297Z,99429.75
2023-05-22T22:42:21.997Z,99434.06
2023-05-22T22:44:48.554Z,99431.34
2023-05-22T22:47:15.122Z,99435.53
2023-05-22T22:49:42.427Z,99437.03
2023-05-22T22:52:09.027Z,99439.78
2023-05-22T22:54:35.813Z,99438.19
2023-05-22T22:57:02.478Z,99441.94
2023-05-22T22:59:29.211Z,99435.69
2023-05-22T23:01:55.917Z,99438.41
2023-05-22T23:04:22.611Z,99441.16
2023-05-22T23:06:49.237Z,99441.16
2023-05-22T23:09:15.777Z,99438.88
2023-05-22T23:11:42.337Z,99439.66
2023-05-22T23:14:09.758Z,99437.28
2023-05-22T23:16:37.820Z,99445.47
2023-05-22T23:19:05.152Z,99441.59
2023-05-22T23:21:32.653Z,99437.28
2023-05-22T23:24:00.451Z,99440.00
2023-05-22T23:26:28.102Z,99436.47
2023-05-22T23:28:54.677Z,99443.41
2023-05-22T23:31:26.265Z,99441.56
2023-05-22T23:33:53.237Z,99439.84
2023-05-22T23:36:19.858Z,99439.75
2023-05-22T23:38:46.930Z,99440.06
2023-05-22T23:41:19.873Z,99432.91
2023-05-22T23:43:47.128Z,99440.16
2023-05-22T23:46:14.186Z,99437.66
2023-05-22T23:48:42.091Z,99440.63
2023-05-22T23:51:14.311Z,99442.41
2023-05-22T23:53:42.298Z,99444.09
2023-05-22T23:56:09.393Z,99455.69
2023-05-22T23:58:37.484Z,99453.28
